Time;durP1;ratioP1;P1;durP2;ratioP2;P2;SDS_P1;SDS_P2;PMS_P1;PMS_P2;Temp;Humidity;BMP_temperature;BMP_pressure;BME280_temperature;BME280_humidity;BME280_pressure;Samples;Min_cycle;Max_cycle;Signal;HPM_P1;HPM_P2
2024/02/11 00:00:52;;;;;;;;;7.00;5.75;;;;;;;;5081670;28;45397;-73
2024/02/11 00:03:25;;;;;;;;;5.67;5.67;;;;;;;;5081241;28;45282;-73
2024/02/11 00:05:51;;;;;;;;;8.50;6.75;;;;;;;;5068664;28;46270;-73
2024/02/11 00:08:16;;;;;;;;;10.00;6.00;;;;;;;;5081153;28;45365;-73
2024/02/11 00:10:41;;;;;;;;;9.67;8.00;;;;;;;;5080951;28;45487;-73
2024/02/11 00:13:06;;;;;;;;;9.00;8.00;;;;;;;;5080977;28;45554;-73
2024/02/11 00:15:31;;;;;;;;;6.33;5.00;;;;;;;;5081053;28;46206;-73
2024/02/11 00:17:57;;;;;;;;;7.50;5.75;;;;;;;;5080772;28;45469;-73
2024/02/11 00:20:22;;;;;;;;;7.00;7.00;;;;;;;;5079922;28;45368;-73
2024/02/11 00:22:48;;;;;;;;;8.67;6.33;;;;;;;;5080933;28;45238;-73
2024/02/11 00:25:14;;;;;;;;;5.50;4.50;;;;;;;;5080758;28;45414;-73
2024/02/11 00:27:44;;;;;;;;;5.75;3.00;;;;;;;;5080590;28;45231;-73
2024/02/11 00:30:09;;;;;;;;;7.75;4.00;;;;;;;;5079753;28;45418;-73
2024/02/11 00:32:37;;;;;;;;;8.25;4.00;;;;;;;;5080601;28;45495;-73
2024/02/11 00:35:02;;;;;;;;;9.75;6.00;;;;;;;;5079417;28;47792;-73
2024/02/11 00:37:29;;;;;;;;;9.50;5.25;;;;;;;;5080640;28;45286;-73
2024/02/11 00:39:54;;;;;;;;;10.50;5.75;;;;;;;;5079384;28;45329;-73
2024/02/11 00:42:20;;;;;;;;;9.50;4.00;;;;;;;;5080487;28;45336;-73
2024/02/11 00:44:45;;;;;;;;;5.75;2.25;;;;;;;;5080508;28;46235;-73
2024/02/11 00:47:10;;;;;;;;;6.00;4.33;;;;;;;;5080637;28;45337;-73
2024/02/11 00:49:36;;;;;;;;;5.00;5.00;;;;;;;;5080806;28;45740;-73
2024/02/11 00:52:01;;;;;;;;;4.00;3.00;;;;;;;;5080430;28;45489;-73
2024/02/11 00:54:26;;;;;;;;;4.00;3.00;;;;;;;;5080400;28;45484;-73
2024/02/11 00:56:54;;;;;;;;;6.00;4.33;;;;;;;;5080502;28;45829;-73
2024/02/11 00:59:19;;;;;;;;;3.75;3.75;;;;;;;;5080632;28;45408;-73
2024/02/11 01:01:44;;;;;;;;;8.33;3.33;;;;;;;;5080608;28;45372;-73
2024/02/11 01:04:09;;;;;;;;;6.33;4.67;;;;;;;;5080198;28;47112;-73
2024/02/11 01:06:36;;;;;;;;;6.67;5.67;;;;;;;;5080431;28;45604;-73
2024/02/11 01:09:01;;;;;;;;;4.75;4.75;;;;;;;;5080113;28;45444;-73
2024/02/11 01:11:27;;;;;;;;;4.25;3.00;;;;;;;;5080282;27;45501;-72
2024/02/11 01:13:52;;;;;;;;;5.67;5.33;;;;;;;;5080272;28;46426;-73
2024/02/11 01:16:17;;;;;;;;;5.33;4.00;;;;;;;;5078763;28;45251;-73
2024/02/11 01:18:46;;;;;;;;;4.67;4.67;;;;;;;;5080188;28;45252;-72
2024/02/11 01:21:11;;;;;;;;;4.00;4.00;;;;;;;;5078691;28;45556;-73
2024/02/11 01:23:36;;;;;;;;;7.50;4.00;;;;;;;;5080212;28;45381;-73
2024/02/11 01:26:01;;;;;;;;;9.33;5.33;;;;;;;;5079550;28;45443;-73
2024/02/11 01:28:30;;;;;;;;;4.25;4.25;;;;;;;;5080112;28;45444;-72
2024/02/11 01:30:55;;;;;;;;;7.00;3.50;;;;;;;;5079991;28;45673;-73
2024/02/11 01:33:20;;;;;;;;;3.75;3.75;;;;;;;;5079696;28;46331;-73
2024/02/11 01:35:45;;;;;;;;;5.00;3.00;;;;;;;;5079918;28;45524;-72
2024/02/11 01:38:11;;;;;;;;;9.00;4.00;;;;;;;;5079972;28;45491;-72
2024/02/11 01:40:36;;;;;;;;;6.33;3.33;;;;;;;;5079727;28;45522;-73
2024/02/11 01:43:09;;;;;;;;;5.00;4.33;;;;;;;;5079008;28;46223;-72
2024/02/11 01:45:35;;;;;;;;;10.00;5.25;;;;;;;;5079423;28;45481;-72
2024/02/11 01:48:01;;;;;;;;;5.25;3.00;;;;;;;;5080173;28;45447;-72
2024/02/11 01:50:31;;;;;;;;;3.50;3.50;;;;;;;;5079609;28;45496;-73
2024/02/11 01:52:57;;;;;;;;;4.25;3.50;;;;;;;;5079705;28;45777;-73
2024/02/11 01:55:23;;;;;;;;;3.00;2.00;;;;;;;;5079250;28;45626;-72
2024/02/11 01:57:49;;;;;;;;;4.75;4.75;;;;;;;;5079705;28;45419;-72
2024/02/11 02:00:17;;;;;;;;;4.50;4.00;;;;;;;;5078093;28;45389;-72
2024/02/11 02:02:44;;;;;;;;;6.50;5.25;;;;;;;;5079471;28;46452;-73
2024/02/11 02:05:09;;;;;;;;;3.50;2.50;;;;;;;;5079425;28;45681;-72
2024/02/11 02:07:34;;;;;;;;;11.25;6.25;;;;;;;;5079588;28;45318;-72
2024/02/11 02:10:00;;;;;;;;;6.00;4.00;;;;;;;;5077721;28;45965;-72
2024/02/11 02:12:26;;;;;;;;;2.75;2.00;;;;;;;;5078936;28;46351;-72
2024/02/11 02:14:51;;;;;;;;;5.25;2.00;;;;;;;;5079353;28;45321;-72
2024/02/11 02:17:17;;;;;;;;;4.00;3.50;;;;;;;;5079450;28;45510;-72
2024/02/11 02:19:42;;;;;;;;;6.33;4.00;;;;;;;;5079268;28;45317;-72
2024/02/11 02:22:07;;;;;;;;;2.33;2.00;;;;;;;;5077908;28;48158;-72
2024/02/11 02:24:32;;;;;;;;;3.50;2.50;;;;;;;;5077619;28;46111;-72
2024/02/11 02:26:57;;;;;;;;;4.00;2.00;;;;;;;;5079283;28;45607;-73
2024/02/11 02:29:23;;;;;;;;;3.00;3.00;;;;;;;;5078947;28;45641;-72
2024/02/11 02:31:48;;;;;;;;;5.67;3.00;;;;;;;;5079220;28;46624;-72
2024/02/11 02:34:13;;;;;;;;;3.33;3.33;;;;;;;;5078900;27;45337;-72
2024/02/11 02:36:39;;;;;;;;;4.67;2.67;;;;;;;;5079278;28;45311;-72
2024/02/11 02:39:05;;;;;;;;;2.75;2.00;;;;;;;;5078693;28;45642;-72
2024/02/11 02:41:31;;;;;;;;;4.00;2.25;;;;;;;;5079005;28;46162;-72
2024/02/11 02:43:56;;;;;;;;;4.33;3.00;;;;;;;;5078933;28;45428;-72
2024/02/11 02:46:21;;;;;;;;;3.67;2.00;;;;;;;;5079085;28;45480;-72
2024/02/11 02:48:49;;;;;;;;;2.75;2.00;;;;;;;;5078906;28;45497;-72
2024/02/11 02:51:15;;;;;;;;;3.75;1.50;;;;;;;;5078843;28;45547;-72
2024/02/11 02:53:44;;;;;;;;;3.00;2.25;;;;;;;;5078376;28;45733;-72
2024/02/11 02:56:09;;;;;;;;;10.00;3.00;;;;;;;;5082150;28;45396;-72
2024/02/11 02:58:34;;;;;;;;;3.33;1.33;;;;;;;;5081072;28;45382;-72
2024/02/11 03:01:01;;;;;;;;;5.00;2.00;;;;;;;;5082321;28;45494;-72
2024/02/11 03:03:26;;;;;;;;;1.75;1.00;;;;;;;;5080848;28;45644;-72
2024/02/11 03:05:51;;;;;;;;;4.00;2.00;;;;;;;;5081232;28;45376;-72
2024/02/11 03:08:17;;;;;;;;;2.67;2.00;;;;;;;;5082057;28;45408;-72
2024/02/11 03:10:42;;;;;;;;;3.67;1.00;;;;;;;;5081587;28;45583;-72
2024/02/11 03:13:07;;;;;;;;;4.33;1.00;;;;;;;;5081891;28;45251;-72
2024/02/11 03:15:32;;;;;;;;;6.33;3.33;;;;;;;;5082297;28;45298;-72
2024/02/11 03:17:58;;;;;;;;;4.00;4.00;;;;;;;;5080590;28;45538;-72
2024/02/11 03:20:23;;;;;;;;;1.00;1.00;;;;;;;;5082024;28;45438;-72
2024/02/11 03:22:52;;;;;;;;;1.00;1.00;;;;;;;;5082020;28;45670;-72
2024/02/11 03:25:17;;;;;;;;;5.00;2.50;;;;;;;;5081635;27;45447;-72
2024/02/11 03:27:42;;;;;;;;;2.33;1.33;;;;;;;;5081557;28;45587;-72
2024/02/11 03:30:08;;;;;;;;;6.00;2.67;;;;;;;;5081846;28;46359;-72
2024/02/11 03:32:34;;;;;;;;;1.75;0.75;;;;;;;;5081612;28;45485;-72
2024/02/11 03:34:59;;;;;;;;;3.00;1.00;;;;;;;;5082077;28;45442;-72
2024/02/11 03:37:26;;;;;;;;;4.67;2.00;;;;;;;;5080441;28;45405;-72
2024/02/11 03:39:51;;;;;;;;;2.50;2.00;;;;;;;;5081509;28;46210;-72
2024/02/11 03:42:19;;;;;;;;;4.00;1.33;;;;;;;;5080358;28;45378;-72
2024/02/11 03:44:45;;;;;;;;;1.00;1.00;;;;;;;;5081964;28;45392;-72
2024/02/11 03:47:10;;;;;;;;;1.75;1.75;;;;;;;;5080336;28;45398;-72
2024/02/11 03:49:35;;;;;;;;;3.75;2.00;;;;;;;;5081693;28;46147;-72
2024/02/11 03:52:01;;;;;;;;;1.67;1.33;;;;;;;;5081546;28;45494;-72
2024/02/11 03:54:26;;;;;;;;;3.67;2.00;;;;;;;;5080336;28;45387;-72
2024/02/11 03:56:51;;;;;;;;;3.00;1.33;;;;;;;;5081455;28;45297;-72
2024/02/11 03:59:17;;;;;;;;;1.00;1.00;;;;;;;;5079972;28;47199;-72
2024/02/11 04:01:42;;;;;;;;;2.00;2.00;;;;;;;;5081468;28;45429;-72
2024/02/11 04:04:07;;;;;;;;;2.00;1.00;;;;;;;;5081002;28;45428;-72
2024/02/11 04:06:34;;;;;;;;;2.50;2.00;;;;;;;;5079922;28;45371;-72
2024/02/11 04:09:00;;;;;;;;;1.00;1.00;;;;;;;;5079594;28;47150;-72
2024/02/11 04:11:29;;;;;;;;;2.00;2.00;;;;;;;;5079599;28;46061;-72
2024/02/11 04:13:54;;;;;;;;;4.00;2.00;;;;;;;;5081473;28;45468;-72
2024/02/11 04:16:22;;;;;;;;;2.00;2.00;;;;;;;;5081112;28;45614;-72
2024/02/11 04:18:47;;;;;;;;;3.00;2.00;;;;;;;;5081078;28;46151;-72
2024/02/11 04:21:15;;;;;;;;;5.67;2.00;;;;;;;;5081050;28;45680;-72
2024/02/11 04:23:40;;;;;;;;;2.25;2.25;;;;;;;;5081214;28;45474;-72
2024/02/11 04:26:08;;;;;;;;;4.00;2.00;;;;;;;;5079134;28;45595;-72
2024/02/11 04:28:35;;;;;;;;;4.25;2.00;;;;;;;;5079496;28;48202;-72
2024/02/11 04:31:03;;;;;;;;;2.50;2.00;;;;;;;;5080939;28;45568;-72
2024/02/11 04:33:29;;;;;;;;;2.50;1.00;;;;;;;;5081015;28;45417;-72
2024/02/11 04:35:54;;;;;;;;;2.33;1.33;;;;;;;;5080860;28;45463;-72
2024/02/11 04:38:19;;;;;;;;;4.00;2.50;;;;;;;;5080670;28;45999;-72
2024/02/11 04:40:44;;;;;;;;;3.00;2.00;;;;;;;;5080532;28;45503;-72
2024/02/11 04:43:09;;;;;;;;;2.00;1.33;;;;;;;;5080952;28;45799;-72
2024/02/11 04:45:37;;;;;;;;;3.33;2.33;;;;;;;;5080500;28;45788;-72
2024/02/11 04:48:03;;;;;;;;;2.50;1.00;;;;;;;;5080595;28;45243;-72
2024/02/11 04:50:29;;;;;;;;;1.00;1.00;;;;;;;;5080675;28;45326;-72
2024/02/11 04:52:56;;;;;;;;;4.00;2.00;;;;;;;;5080754;28;45347;-72
2024/02/11 04:55:40;;;;;;;;;4.75;2.00;;;;;;;;5080368;28;45302;-72
2024/02/11 04:58:26;;;;;;;;;1.75;1.75;;;;;;;;5078934;28;46305;-72
2024/02/11 05:00:52;;;;;;;;;1.00;1.00;;;;;;;;5080464;28;45406;-72
2024/02/11 05:03:18;;;;;;;;;4.00;1.00;;;;;;;;5079346;28;45621;-72
2024/02/11 05:05:43;;;;;;;;;1.00;1.00;;;;;;;;5079049;28;45511;-72
2024/02/11 05:08:10;;;;;;;;;2.00;1.50;;;;;;;;5078891;28;46627;-72
2024/02/11 05:10:37;;;;;;;;;3.25;1.00;;;;;;;;5078368;28;45671;-72
2024/02/11 05:13:04;;;;;;;;;3.25;2.50;;;;;;;;5078863;28;45320;-72
2024/02/11 05:15:42;;;;;;;;;4.00;0.25;;;;;;;;5080232;28;45498;-72
2024/02/11 05:18:09;;;;;;;;;5.00;2.75;;;;;;;;5079580;28;45408;-72
2024/02/11 05:20:36;;;;;;;;;2.00;2.00;;;;;;;;5080301;28;45406;-72
2024/02/11 05:23:02;;;;;;;;;0.25;0.25;;;;;;;;5078896;28;45610;-72
2024/02/11 05:25:29;;;;;;;;;3.00;1.75;;;;;;;;5078539;28;45414;-72
2024/02/11 05:27:56;;;;;;;;;3.00;2.00;;;;;;;;5079547;28;46457;-72
2024/02/11 05:30:23;;;;;;;;;4.50;1.75;;;;;;;;5080164;28;45329;-72
2024/02/11 05:32:50;;;;;;;;;4.75;3.00;;;;;;;;5079882;28;45455;-72
2024/02/11 05:35:17;;;;;;;;;4.25;1.50;;;;;;;;5078593;28;45635;-72
2024/02/11 05:37:42;;;;;;;;;2.75;1.25;;;;;;;;5079709;28;45393;-72
2024/02/11 05:40:09;;;;;;;;;3.25;2.50;;;;;;;;5078397;28;45360;-72
2024/02/11 05:42:34;;;;;;;;;5.00;1.00;;;;;;;;5079765;28;45326;-72
2024/02/11 05:44:59;;;;;;;;;4.33;1.67;;;;;;;;5080019;28;45301;-72
2024/02/11 05:47:24;;;;;;;;;2.00;1.00;;;;;;;;5079672;28;45298;-72
2024/02/11 05:49:50;;;;;;;;;2.00;0.25;;;;;;;;5079840;28;45305;-72
2024/02/11 05:52:15;;;;;;;;;1.00;1.00;;;;;;;;5079856;28;45439;-72
2024/02/11 05:54:40;;;;;;;;;3.67;2.00;;;;;;;;5079532;28;45407;-72
2024/02/11 05:57:06;;;;;;;;;4.00;1.00;;;;;;;;5079340;28;45924;-72
2024/02/11 05:59:31;;;;;;;;;3.50;2.25;;;;;;;;5079480;28;45333;-72
2024/02/11 06:01:56;;;;;;;;;8.00;0.33;;;;;;;;5079738;28;45291;-72
2024/02/11 06:04:21;;;;;;;;;4.25;2.50;;;;;;;;5078319;28;45485;-72
2024/02/11 06:06:47;;;;;;;;;2.00;1.00;;;;;;;;5077953;28;47304;-72
2024/02/11 06:09:13;;;;;;;;;4.25;2.25;;;;;;;;5079141;28;45403;-72
2024/02/11 06:11:39;;;;;;;;;1.25;1.00;;;;;;;;5077917;28;45409;-72
2024/02/11 06:14:05;;;;;;;;;4.00;2.50;;;;;;;;5079490;28;45557;-72
2024/02/11 06:16:31;;;;;;;;;3.50;2.00;;;;;;;;5079229;28;45330;-72
2024/02/11 06:18:56;;;;;;;;;3.50;1.50;;;;;;;;5079386;28;45369;-72
2024/02/11 06:21:21;;;;;;;;;3.25;2.25;;;;;;;;5079419;28;45287;-72
2024/02/11 06:23:47;;;;;;;;;1.67;1.00;;;;;;;;5079170;28;45621;-72
2024/02/11 06:26:14;;;;;;;;;2.00;1.00;;;;;;;;5078835;28;45942;-72
2024/02/11 06:28:40;;;;;;;;;2.00;1.00;;;;;;;;5081586;28;45255;-72
2024/02/11 06:31:05;;;;;;;;;3.75;1.25;;;;;;;;5082878;28;45518;-72
2024/02/11 06:33:30;;;;;;;;;1.50;1.00;;;;;;;;5082765;28;45431;-72
2024/02/11 06:35:56;;;;;;;;;5.00;2.00;;;;;;;;5082456;28;45480;-72
2024/02/11 06:38:23;;;;;;;;;2.25;2.00;;;;;;;;5082616;28;45264;-72
2024/02/11 06:40:48;;;;;;;;;2.00;2.00;;;;;;;;5082516;28;45452;-72
2024/02/11 06:43:13;;;;;;;;;2.00;2.00;;;;;;;;5081222;28;46433;-72
2024/02/11 06:45:45;;;;;;;;;5.00;2.00;;;;;;;;5082531;27;46282;-72
2024/02/11 06:48:11;;;;;;;;;5.25;1.00;;;;;;;;5082724;28;45769;-72
2024/02/11 06:50:36;;;;;;;;;2.50;2.00;;;;;;;;5082602;28;45224;-72
2024/02/11 06:53:01;;;;;;;;;4.67;2.00;;;;;;;;5081095;28;45434;-72
2024/02/11 06:55:26;;;;;;;;;1.00;1.00;;;;;;;;5082120;28;45526;-72
2024/02/11 06:57:52;;;;;;;;;4.00;1.67;;;;;;;;5082357;28;45302;-72
2024/02/11 07:00:20;;;;;;;;;2.00;1.33;;;;;;;;5082469;28;45361;-72
2024/02/11 07:02:52;;;;;;;;;1.00;1.00;;;;;;;;5082384;28;45457;-72
2024/02/11 07:05:19;;;;;;;;;3.25;1.00;;;;;;;;5082058;28;45475;-72
2024/02/11 07:07:44;;;;;;;;;1.25;1.25;;;;;;;;5082122;27;45523;-72
2024/02/11 07:10:10;;;;;;;;;2.75;1.00;;;;;;;;5080611;28;45580;-72
2024/02/11 07:12:35;;;;;;;;;4.50;2.00;;;;;;;;5080470;28;45894;-72
2024/02/11 07:15:04;;;;;;;;;2.00;1.00;;;;;;;;5080651;28;47646;-72
2024/02/11 07:17:30;;;;;;;;;2.00;2.00;;;;;;;;5082018;28;45614;-72
2024/02/11 07:19:55;;;;;;;;;4.25;2.00;;;;;;;;5082060;28;45412;-72
2024/02/11 07:22:20;;;;;;;;;1.00;1.00;;;;;;;;5082130;28;45412;-72
2024/02/11 07:24:47;;;;;;;;;3.50;1.25;;;;;;;;5081551;28;45374;-72
2024/02/11 07:27:13;;;;;;;;;2.25;1.00;;;;;;;;5081496;28;45506;-72
2024/02/11 07:29:39;;;;;;;;;1.00;1.00;;;;;;;;5081908;28;45478;-72
2024/02/11 07:32:04;;;;;;;;;1.00;1.00;;;;;;;;5080371;28;45605;-72
2024/02/11 07:34:29;;;;;;;;;1.00;0.75;;;;;;;;5080330;28;47107;-72
2024/02/11 07:36:55;;;;;;;;;1.33;1.33;;;;;;;;5081777;28;45490;-72
2024/02/11 07:39:20;;;;;;;;;1.00;1.00;;;;;;;;5080842;28;45507;-72
2024/02/11 07:41:45;;;;;;;;;1.33;1.33;;;;;;;;5081685;28;45410;-72
2024/02/11 07:44:12;;;;;;;;;1.75;1.00;;;;;;;;5081436;28;46063;-72
2024/02/11 07:46:38;;;;;;;;;1.00;1.00;;;;;;;;5080375;28;45264;-72
2024/02/11 07:49:03;;;;;;;;;2.50;1.00;;;;;;;;5080255;28;45252;-72
2024/02/11 07:51:29;;;;;;;;;2.75;1.25;;;;;;;;5081561;28;45507;-72
2024/02/11 07:53:54;;;;;;;;;2.75;1.50;;;;;;;;5081204;28;46256;-72
2024/02/11 07:56:19;;;;;;;;;1.00;1.00;;;;;;;;5081316;28;45395;-72
2024/02/11 07:58:45;;;;;;;;;1.00;1.00;;;;;;;;5081267;27;45295;-72
2024/02/11 08:01:10;;;;;;;;;2.00;1.00;;;;;;;;5081447;28;46138;-72
2024/02/11 08:03:35;;;;;;;;;1.75;1.00;;;;;;;;5081147;28;45411;-72
2024/02/11 08:06:00;;;;;;;;;4.00;2.67;;;;;;;;5079889;28;45319;-72
2024/02/11 08:08:26;;;;;;;;;8.50;2.00;;;;;;;;5079901;28;45458;-72
2024/02/11 08:10:51;;;;;;;;;2.00;1.00;;;;;;;;5079840;27;45357;-72
2024/02/11 08:13:17;;;;;;;;;0.50;0.50;;;;;;;;5079456;28;48356;-72
2024/02/11 08:15:42;;;;;;;;;2.00;0.50;;;;;;;;5079864;28;45393;-72
2024/02/11 08:18:08;;;;;;;;;2.00;1.00;;;;;;;;5079962;28;45422;-72
2024/02/11 08:20:33;;;;;;;;;3.00;0.00;;;;;;;;5079770;28;45332;-72
2024/02/11 08:22:58;;;;;;;;;2.00;1.00;;;;;;;;5079580;28;47349;-72
2024/02/11 08:25:24;;;;;;;;;3.00;1.50;;;;;;;;5080734;28;45365;-72
2024/02/11 08:27:49;;;;;;;;;1.33;1.00;;;;;;;;5080727;28;45701;-72
2024/02/11 08:30:14;;;;;;;;;3.50;1.00;;;;;;;;5081100;28;45361;-72
2024/02/11 08:32:42;;;;;;;;;1.75;1.00;;;;;;;;5080513;28;45623;-72
2024/02/11 08:35:08;;;;;;;;;1.00;0.50;;;;;;;;5079720;28;45581;-72
2024/02/11 08:37:34;;;;;;;;;1.00;1.00;;;;;;;;5079492;28;45526;-72
2024/02/11 08:39:59;;;;;;;;;0.50;0.50;;;;;;;;5080664;28;45476;-72
2024/02/11 08:42:27;;;;;;;;;2.50;1.00;;;;;;;;5080513;28;45271;-72
2024/02/11 08:44:53;;;;;;;;;3.00;0.00;;;;;;;;5079388;28;45757;-72
2024/02/11 08:47:18;;;;;;;;;1.25;0.75;;;;;;;;5080876;28;45416;-72
2024/02/11 08:49:46;;;;;;;;;2.25;2.00;;;;;;;;5080550;28;45461;-72
2024/02/11 08:52:12;;;;;;;;;2.00;1.00;;;;;;;;5079197;28;46361;-72
2024/02/11 08:54:38;;;;;;;;;3.00;1.00;;;;;;;;5080439;28;45322;-72
2024/02/11 08:57:03;;;;;;;;;1.75;1.75;;;;;;;;5079202;28;45545;-72
2024/02/11 08:59:31;;;;;;;;;3.50;1.00;;;;;;;;5079205;28;45497;-72
2024/02/11 09:01:58;;;;;;;;;2.00;0.50;;;;;;;;5080251;28;45338;-72
2024/02/11 09:04:24;;;;;;;;;2.00;2.00;;;;;;;;5080312;28;45711;-72
2024/02/11 09:06:55;;;;;;;;;1.00;1.00;;;;;;;;5078936;28;45482;-72
2024/02/11 09:09:25;;;;;;;;;1.00;1.00;;;;;;;;5080163;28;45322;-72
2024/02/11 09:11:52;;;;;;;;;0.25;0.25;;;;;;;;5078552;28;47363;-72
2024/02/11 09:14:17;;;;;;;;;4.50;1.25;;;;;;;;5080325;28;45584;-72
2024/02/11 09:16:42;;;;;;;;;3.00;2.00;;;;;;;;5078778;28;45323;-72
2024/02/11 09:19:08;;;;;;;;;0.67;0.00;;;;;;;;5080265;28;45298;-72
2024/02/11 09:21:33;;;;;;;;;3.75;1.00;;;;;;;;5078525;28;47253;-72
2024/02/11 09:23:58;;;;;;;;;2.67;1.00;;;;;;;;5078526;28;45386;-72
2024/02/11 09:26:23;;;;;;;;;3.00;1.33;;;;;;;;5079909;28;45295;-72
2024/02/11 09:28:48;;;;;;;;;3.33;2.33;;;;;;;;5079943;28;45538;-72
2024/02/11 09:31:14;;;;;;;;;3.75;1.25;;;;;;;;5079674;28;45407;-72
2024/02/11 09:33:39;;;;;;;;;1.33;1.33;;;;;;;;5079909;28;45353;-72
2024/02/11 09:36:06;;;;;;;;;1.50;1.00;;;;;;;;5078397;28;45346;-72
2024/02/11 09:38:31;;;;;;;;;0.25;0.25;;;;;;;;5078603;28;45407;-72
2024/02/11 09:40:57;;;;;;;;;1.25;1.25;;;;;;;;5078400;28;45276;-72
2024/02/11 09:43:23;;;;;;;;;0.50;0.50;;;;;;;;5078403;28;45391;-72
2024/02/11 09:45:50;;;;;;;;;3.00;2.00;;;;;;;;5079792;28;45533;-72
2024/02/11 09:48:16;;;;;;;;;1.50;1.00;;;;;;;;5078386;28;45547;-72
2024/02/11 09:50:44;;;;;;;;;3.75;2.25;;;;;;;;5079702;28;45534;-72
2024/02/11 09:53:13;;;;;;;;;2.50;1.00;;;;;;;;5078339;28;45342;-72
2024/02/11 09:55:39;;;;;;;;;1.00;1.00;;;;;;;;5079505;28;45500;-72
2024/02/11 09:58:04;;;;;;;;;0.50;0.50;;;;;;;;5078161;28;45398;-72
2024/02/11 10:00:29;;;;;;;;;3.00;2.00;;;;;;;;5079371;28;46290;-72
2024/02/11 10:02:57;;;;;;;;;1.00;1.00;;;;;;;;5077849;28;45630;-72
2024/02/11 10:05:23;;;;;;;;;1.00;1.00;;;;;;;;5078049;28;45337;-73
2024/02/11 10:07:52;;;;;;;;;2.00;1.00;;;;;;;;5079341;28;45345;-72
2024/02/11 10:10:17;;;;;;;;;1.25;1.25;;;;;;;;5078779;28;45342;-72
2024/02/11 10:12:44;;;;;;;;;5.75;1.00;;;;;;;;5077732;28;45405;-73
2024/02/11 10:15:15;;;;;;;;;2.00;1.00;;;;;;;;5079483;28;45856;-72
2024/02/11 10:17:41;;;;;;;;;2.00;1.00;;;;;;;;5079337;28;45478;-72
2024/02/11 10:20:06;;;;;;;;;3.00;1.00;;;;;;;;5077616;28;47277;-72
2024/02/11 10:22:31;;;;;;;;;3.00;1.00;;;;;;;;5079243;28;45320;-72
2024/02/11 10:24:57;;;;;;;;;2.33;2.00;;;;;;;;5079041;28;45627;-72
2024/02/11 10:27:23;;;;;;;;;1.50;1.50;;;;;;;;5078799;28;45499;-72
2024/02/11 10:29:50;;;;;;;;;2.50;2.00;;;;;;;;5077766;28;47202;-72
2024/02/11 10:32:15;;;;;;;;;3.00;1.00;;;;;;;;5077661;28;45583;-72
2024/02/11 10:34:41;;;;;;;;;2.25;1.75;;;;;;;;5079146;27;45307;-72
2024/02/11 10:37:07;;;;;;;;;1.00;1.00;;;;;;;;5077783;28;45718;-72
2024/02/11 10:39:36;;;;;;;;;2.00;2.00;;;;;;;;5078730;28;45567;-72
2024/02/11 10:42:01;;;;;;;;;2.00;1.00;;;;;;;;5078823;28;45324;-72
2024/02/11 10:44:27;;;;;;;;;4.00;2.00;;;;;;;;5078894;28;45251;-72
2024/02/11 10:46:55;;;;;;;;;1.00;1.00;;;;;;;;5078917;28;45422;-72
2024/02/11 10:49:20;;;;;;;;;4.75;1.25;;;;;;;;5077345;28;47953;-72
2024/02/11 10:51:48;;;;;;;;;2.25;1.00;;;;;;;;5078806;28;45318;-72
2024/02/11 10:54:14;;;;;;;;;3.00;2.00;;;;;;;;5077138;28;45517;-72
2024/02/11 10:56:40;;;;;;;;;0.50;0.50;;;;;;;;5078708;28;45318;-73
2024/02/11 10:59:09;;;;;;;;;1.75;0.75;;;;;;;;5077111;28;47122;-72
2024/02/11 11:01:37;;;;;;;;;2.50;1.75;;;;;;;;5077354;28;45577;-72
2024/02/11 11:04:03;;;;;;;;;4.50;3.00;;;;;;;;5077308;28;45542;-73
2024/02/11 11:06:29;;;;;;;;;3.00;0.00;;;;;;;;5077124;28;45288;-73
2024/02/11 11:08:54;;;;;;;;;4.00;2.00;;;;;;;;5076872;28;47283;-72
2024/02/11 11:11:26;;;;;;;;;2.50;1.50;;;;;;;;5077090;28;45755;-73
2024/02/11 11:13:56;;;;;;;;;4.00;2.00;;;;;;;;5078677;28;45539;-72
2024/02/11 11:16:23;;;;;;;;;1.75;1.00;;;;;;;;5081848;28;45272;-72
2024/02/11 11:18:48;;;;;;;;;1.00;1.00;;;;;;;;5081899;28;47164;-72
2024/02/11 11:21:15;;;;;;;;;0.75;0.75;;;;;;;;5080459;28;45323;-72
2024/02/11 11:23:42;;;;;;;;;1.25;1.00;;;;;;;;5081890;28;45483;-73
2024/02/11 11:26:10;;;;;;;;;2.00;1.75;;;;;;;;5080213;27;45580;-72
2024/02/11 11:28:38;;;;;;;;;1.00;0.75;;;;;;;;5080500;28;47236;-72
2024/02/11 11:31:03;;;;;;;;;2.75;1.00;;;;;;;;5081838;28;45549;-73
2024/02/11 11:33:34;;;;;;;;;2.00;1.00;;;;;;;;5081855;28;45420;-73
2024/02/11 11:36:00;;;;;;;;;2.50;2.00;;;;;;;;5080254;28;45370;-72
2024/02/11 11:38:27;;;;;;;;;3.00;0.25;;;;;;;;5080261;28;45370;-72
2024/02/11 11:40:54;;;;;;;;;1.00;1.00;;;;;;;;5080278;28;45343;-72
2024/02/11 11:43:21;;;;;;;;;3.00;1.00;;;;;;;;5081828;28;45621;-72
2024/02/11 11:45:54;;;;;;;;;2.00;2.00;;;;;;;;5081534;28;45740;-73
2024/02/11 11:48:20;;;;;;;;;3.00;1.00;;;;;;;;5080274;28;47031;-72
2024/02/11 11:50:52;;;;;;;;;3.00;1.75;;;;;;;;5080110;28;45462;-72
2024/02/11 11:53:21;;;;;;;;;1.00;1.00;;;;;;;;5080225;28;45516;-72
2024/02/11 11:55:52;;;;;;;;;3.00;2.00;;;;;;;;5081123;28;45322;-72
2024/02/11 11:58:21;;;;;;;;;3.00;1.00;;;;;;;;5081340;28;46849;-72
2024/02/11 12:00:56;;;;;;;;;1.25;1.00;;;;;;;;5081287;28;45691;-72
2024/02/11 12:03:22;;;;;;;;;1.50;0.50;;;;;;;;5081528;28;45555;-72
2024/02/11 12:05:47;;;;;;;;;1.00;1.00;;;;;;;;5080009;28;45887;-72
2024/02/11 12:08:14;;;;;;;;;1.00;0.67;;;;;;;;5079781;28;46276;-72
2024/02/11 12:10:39;;;;;;;;;4.75;1.00;;;;;;;;5080769;28;45542;-73
2024/02/11 12:13:06;;;;;;;;;0.00;0.00;;;;;;;;5079689;28;45365;-72
2024/02/11 12:15:31;;;;;;;;;1.00;1.00;;;;;;;;5081324;28;45396;-72
2024/02/11 12:17:59;;;;;;;;;1.00;1.00;;;;;;;;5080829;27;45405;-72
2024/02/11 12:20:25;;;;;;;;;1.25;1.25;;;;;;;;5081261;28;45634;-73
2024/02/11 12:22:50;;;;;;;;;0.00;0.00;;;;;;;;5081084;28;45783;-72
2024/02/11 12:25:20;;;;;;;;;1.00;1.00;;;;;;;;5079189;28;45741;-73
2024/02/11 12:27:48;;;;;;;;;2.00;1.00;;;;;;;;5080477;28;46395;-72
2024/02/11 12:30:22;;;;;;;;;1.25;0.00;;;;;;;;5079669;28;45695;-72
2024/02/11 12:32:48;;;;;;;;;1.00;1.00;;;;;;;;5079580;27;45407;-72
2024/02/11 12:35:13;;;;;;;;;1.00;1.00;;;;;;;;5080933;28;45480;-72
2024/02/11 12:37:38;;;;;;;;;0.75;0.75;;;;;;;;5080666;28;45764;-72
2024/02/11 12:40:05;;;;;;;;;1.00;0.67;;;;;;;;5080757;28;45400;-72
2024/02/11 12:42:30;;;;;;;;;0.00;0.00;;;;;;;;5079271;27;45463;-72
2024/02/11 12:44:56;;;;;;;;;2.00;0.25;;;;;;;;5080807;28;45425;-73
2024/02/11 12:47:21;;;;;;;;;1.00;1.00;;;;;;;;5079341;27;46994;-73
2024/02/11 12:49:47;;;;;;;;;2.00;1.00;;;;;;;;5079451;28;45626;-72
2024/02/11 12:52:12;;;;;;;;;1.00;1.00;;;;;;;;5079235;28;45393;-73
2024/02/11 12:54:38;;;;;;;;;1.00;1.00;;;;;;;;5079015;28;45445;-72
2024/02/11 12:57:05;;;;;;;;;1.00;0.00;;;;;;;;5080370;28;46734;-72
2024/02/11 12:59:30;;;;;;;;;2.00;1.00;;;;;;;;5080578;28;45389;-72
2024/02/11 13:01:57;;;;;;;;;1.67;1.00;;;;;;;;5080668;28;45290;-72
2024/02/11 13:04:22;;;;;;;;;0.00;0.00;;;;;;;;5078847;28;45381;-72
2024/02/11 13:06:47;;;;;;;;;0.50;0.50;;;;;;;;5080238;28;46326;-72
2024/02/11 13:09:13;;;;;;;;;1.00;0.00;;;;;;;;5078766;28;45387;-72
2024/02/11 13:11:39;;;;;;;;;1.00;1.00;;;;;;;;5078658;28;45421;-72
2024/02/11 13:14:04;;;;;;;;;2.00;1.00;;;;;;;;5080297;28;45460;-72
2024/02/11 13:16:29;;;;;;;;;3.00;1.67;;;;;;;;5080172;28;45519;-72
2024/02/11 13:18:54;;;;;;;;;0.00;0.00;;;;;;;;5078807;28;45775;-72
2024/02/11 13:21:20;;;;;;;;;0.00;0.00;;;;;;;;5080318;28;45302;-72
2024/02/11 13:23:47;;;;;;;;;1.00;0.00;;;;;;;;5078690;28;45820;-72
2024/02/11 13:26:12;;;;;;;;;0.00;0.00;;;;;;;;5078251;28;48193;-72
2024/02/11 13:28:38;;;;;;;;;1.00;1.00;;;;;;;;5078714;28;45369;-72
2024/02/11 13:31:04;;;;;;;;;1.00;1.00;;;;;;;;5080067;28;45432;-72
2024/02/11 13:33:31;;;;;;;;;0.25;0.25;;;;;;;;5079795;28;45600;-72
2024/02/11 13:35:57;;;;;;;;;1.25;1.00;;;;;;;;5078296;28;47569;-72
2024/02/11 13:38:22;;;;;;;;;1.00;1.00;;;;;;;;5078938;28;45359;-72
2024/02/11 13:40:48;;;;;;;;;2.75;0.00;;;;;;;;5080072;28;45649;-72
2024/02/11 13:43:14;;;;;;;;;2.00;0.00;;;;;;;;5079789;28;45558;-72
2024/02/11 13:45:39;;;;;;;;;0.50;0.00;;;;;;;;5078239;28;46570;-72
2024/02/11 13:48:05;;;;;;;;;1.00;1.00;;;;;;;;5079821;28;45626;-72
2024/02/11 13:50:31;;;;;;;;;0.50;0.50;;;;;;;;5078280;27;45557;-72
2024/02/11 13:53:01;;;;;;;;;0.00;0.00;;;;;;;;5078357;28;45559;-72
2024/02/11 13:55:26;;;;;;;;;1.00;1.00;;;;;;;;5077898;28;46115;-72
2024/02/11 13:57:52;;;;;;;;;1.50;0.75;;;;;;;;5079627;28;45293;-72
2024/02/11 14:00:17;;;;;;;;;0.00;0.00;;;;;;;;5078297;28;45544;-72
2024/02/11 14:02:42;;;;;;;;;0.00;0.00;;;;;;;;5078355;28;46362;-72
2024/02/11 14:05:08;;;;;;;;;1.00;1.00;;;;;;;;5079350;28;45538;-72
2024/02/11 14:07:33;;;;;;;;;0.75;0.75;;;;;;;;5078206;28;45392;-72
2024/02/11 14:10:00;;;;;;;;;0.75;0.00;;;;;;;;5079187;28;45465;-72
2024/02/11 14:12:25;;;;;;;;;1.00;1.00;;;;;;;;5079176;28;45432;-72
2024/02/11 14:14:53;;;;;;;;;1.00;1.00;;;;;;;;5077803;28;46960;-72
2024/02/11 14:17:19;;;;;;;;;0.25;0.25;;;;;;;;5078069;28;45338;-72
2024/02/11 14:19:44;;;;;;;;;1.00;1.00;;;;;;;;5079284;28;45403;-72
2024/02/11 14:22:10;;;;;;;;;0.00;0.00;;;;;;;;5079533;28;45297;-72
2024/02/11 14:24:35;;;;;;;;;1.00;0.00;;;;;;;;5078814;28;45535;-72
2024/02/11 14:27:01;;;;;;;;;0.00;0.00;;;;;;;;5078932;28;45394;-72
2024/02/11 14:29:29;;;;;;;;;1.00;1.00;;;;;;;;5079264;28;45509;-72
2024/02/11 14:31:55;;;;;;;;;0.25;0.25;;;;;;;;5077444;28;45584;-72
2024/02/11 14:34:20;;;;;;;;;0.75;0.75;;;;;;;;5077716;28;46912;-72
2024/02/11 14:36:45;;;;;;;;;2.75;1.00;;;;;;;;5077699;28;45429;-72